createdAt,value
2018-03-19T00:00:19.946Z,0
2018-03-19T00:01:29.790Z,0
2018-03-19T00:02:39.831Z,0
2018-03-19T00:03:49.618Z,0
2018-03-19T00:04:59.423Z,0
2018-03-19T00:06:09.235Z,0
2018-03-19T00:07:19.339Z,0
2018-03-19T00:08:29.144Z,0
2018-03-19T00:09:39.200Z,0
2018-03-19T00:10:48.741Z,0
2018-03-19T00:11:58.279Z,0
2018-03-19T00:13:07.857Z,0
2018-03-19T00:14:17.429Z,0
2018-03-19T00:15:27.219Z,0
2018-03-19T00:16:37.023Z,0
2018-03-19T00:17:47.103Z,0
2018-03-19T00:18:57.204Z,0
2018-03-19T00:20:06.475Z,0
2018-03-19T00:21:16.278Z,0
2018-03-19T00:22:26.064Z,0
2018-03-19T00:23:36.107Z,0
2018-03-19T00:24:45.957Z,0
2018-03-19T00:25:55.756Z,0
2018-03-19T00:27:05.610Z,0
2018-03-19T00:28:15.388Z,0
2018-03-19T00:29:24.659Z,0
2018-03-19T00:30:34.549Z,0
2018-03-19T00:31:44.342Z,0
2018-03-19T00:32:53.611Z,0
2018-03-19T00:34:03.411Z,0
2018-03-19T00:35:13.709Z,0
2018-03-19T00:36:23.784Z,0
2018-03-19T00:37:33.315Z,0
2018-03-19T00:38:43.367Z,0
2018-03-19T00:39:52.911Z,0
2018-03-19T00:41:02.438Z,0
2018-03-19T00:42:12.265Z,0
2018-03-19T00:43:22.077Z,0
2018-03-19T00:44:31.910Z,0
2018-03-19T00:45:41.967Z,0
2018-03-19T00:46:51.766Z,0
2018-03-19T00:48:01.819Z,0
2018-03-19T00:49:11.892Z,0
2018-03-19T00:50:21.445Z,0
2018-03-19T00:51:31.503Z,0
2018-03-19T00:52:40.765Z,0
2018-03-19T00:53:50.351Z,0
2018-03-19T00:55:00.149Z,0
2018-03-19T00:56:09.939Z,0
2018-03-19T00:57:19.995Z,0
2018-03-19T00:58:30.053Z,0
2018-03-19T00:59:40.156Z,0
2018-03-19T01:00:49.941Z,0
2018-03-19T01:01:59.494Z,0
2018-03-19T01:03:09.548Z,0
2018-03-19T01:04:19.731Z,0
2018-03-19T01:05:29.850Z,0
2018-03-19T01:06:39.912Z,0
2018-03-19T01:07:49.959Z,0
2018-03-19T01:08:59.743Z,0
2018-03-19T01:10:09.285Z,0
2018-03-19T01:11:19.408Z,0
2018-03-19T01:12:29.210Z,0
2018-03-19T01:13:39.282Z,0
2018-03-19T01:14:49.353Z,0
2018-03-19T01:15:59.412Z,0
2018-03-19T01:17:09.191Z,0
2018-03-19T01:18:18.734Z,0
2018-03-19T01:19:28.882Z,0
2018-03-19T01:20:38.952Z,0
2018-03-19T01:21:48.753Z,0
2018-03-19T01:22:58.591Z,0
2018-03-19T01:24:08.377Z,0
2018-03-19T01:25:17.914Z,0
2018-03-19T01:26:27.438Z,0
2018-03-19T01:27:37.507Z,0
2018-03-19T01:28:47.353Z,0
2018-03-19T01:29:57.151Z,0
2018-03-19T01:31:06.939Z,0
2018-03-19T01:32:16.985Z,0
2018-03-19T01:33:26.513Z,0
2018-03-19T01:34:36.625Z,0
2018-03-19T01:35:46.415Z,0
2018-03-19T01:36:56.467Z,0
2018-03-19T01:38:06.264Z,0
2018-03-19T01:39:15.537Z,0
2018-03-19T01:40:25.342Z,0
2018-03-19T01:41:35.373Z,0
2018-03-19T01:42:45.436Z,0
2018-03-19T01:43:55.235Z,0
2018-03-19T01:45:05.349Z,0
2018-03-19T01:46:15.450Z,0
2018-03-19T01:47:25.515Z,0
2018-03-19T01:48:35.283Z,0
2018-03-19T01:49:45.102Z,0
2018-03-19T01:50:55.154Z,0
2018-03-19T01:52:05.209Z,0
2018-03-19T01:53:15.018Z,0
2018-03-19T01:54:25.089Z,0
2018-03-19T01:55:35.139Z,0
2018-03-19T01:56:44.676Z,0
2018-03-19T01:57:54.245Z,0
2018-03-19T01:59:04.308Z,0
2018-03-19T02:00:14.366Z,0
2018-03-19T02:01:24.154Z,0
2018-03-19T02:02:33.950Z,0
2018-03-19T02:03:43.728Z,0
2018-03-19T02:04:53.790Z,0
2018-03-19T02:06:03.856Z,0
2018-03-19T02:07:13.913Z,0
2018-03-19T02:08:23.968Z,0
2018-03-19T02:09:34.033Z,0
2018-03-19T02:10:44.086Z,0
2018-03-19T02:11:53.888Z,0
2018-03-19T02:13:03.977Z,0
2018-03-19T02:14:14.021Z,0
2018-03-19T02:15:24.080Z,0
2018-03-19T02:16:34.138Z,0
2018-03-19T02:17:43.947Z,0
2018-03-19T02:18:53.466Z,0
2018-03-19T02:20:03.518Z,0
2018-03-19T02:21:13.585Z,0
2018-03-19T02:22:23.375Z,0
2018-03-19T02:23:33.191Z,0
2018-03-19T02:24:43.243Z,0
2018-03-19T02:25:53.302Z,0
2018-03-19T02:27:03.139Z,0
2018-03-19T02:28:13.182Z,0
2018-03-19T02:29:23.232Z,0
2018-03-19T02:30:33.293Z,0
2018-03-19T02:31:43.352Z,0
2018-03-19T02:32:53.481Z,0
2018-03-19T02:34:03.575Z,0
2018-03-19T02:35:13.111Z,0
2018-03-19T02:36:22.912Z,0
2018-03-19T02:37:32.994Z,0
2018-03-19T02:38:43.124Z,0
2018-03-19T02:39:53.180Z,0
2018-03-19T02:41:03.241Z,0
2018-03-19T02:42:13.295Z,0
2018-03-19T02:43:23.104Z,0
2018-03-19T02:44:33.248Z,0
2018-03-19T02:45:43.362Z,0
2018-03-19T02:46:53.181Z,0
2018-03-19T02:48:03.032Z,0
2018-03-19T02:49:12.555Z,0
2018-03-19T02:50:22.352Z,0
2018-03-19T02:51:32.419Z,0
2018-03-19T02:52:42.501Z,0
2018-03-19T02:53:52.031Z,0
2018-03-19T02:55:02.101Z,0
2018-03-19T02:56:11.783Z,0
2018-03-19T02:57:21.700Z,0
2018-03-19T02:58:30.979Z,0
2018-03-19T02:59:40.769Z,0
2018-03-19T03:00:50.288Z,0
2018-03-19T03:02:00.392Z,0
2018-03-19T03:03:09.653Z,0
2018-03-19T03:04:19.440Z,0
2018-03-19T03:05:29.236Z,0
2018-03-19T03:06:38.780Z,0
2018-03-19T03:07:48.848Z,0
2018-03-19T03:39:47.630Z,0
2018-03-19T03:40:57.693Z,0
2018-03-19T03:42:07.496Z,0
2018-03-19T03:43:17.045Z,0
2018-03-19T03:44:26.818Z,0
2018-03-19T03:45:36.924Z,0
2018-03-19T03:46:46.702Z,0
2018-03-19T03:47:56.490Z,0
2018-03-19T03:49:06.531Z,0
2018-03-19T03:50:16.099Z,0
2018-03-19T03:51:25.951Z,0
2018-03-19T03:52:35.747Z,0
2018-03-19T03:53:45.801Z,0
2018-03-19T03:54:55.856Z,0
2018-03-19T03:56:05.912Z,0
2018-03-19T03:57:16.063Z,0
2018-03-19T03:58:26.123Z,0
2018-03-19T03:59:35.921Z,0
2018-03-19T04:00:45.727Z,0
2018-03-19T04:01:55.791Z,0
2018-03-19T04:03:05.363Z,0
2018-03-19T04:04:15.419Z,0
2018-03-19T04:05:25.482Z,0
2018-03-19T04:06:35.271Z,0
2018-03-19T04:07:45.333Z,0
2018-03-19T04:08:55.438Z,0
2018-03-19T04:10:05.485Z,0
2018-03-19T04:11:15.527Z,0
2018-03-19T04:12:25.587Z,0
2018-03-19T04:13:35.640Z,0
2018-03-19T04:14:45.162Z,0
2018-03-19T04:15:55.217Z,0
2018-03-19T04:17:04.744Z,0
2018-03-19T04:18:14.810Z,0
2018-03-19T04:19:24.616Z,0
2018-03-19T04:20:34.459Z,0
2018-03-19T04:21:44.499Z,0
2018-03-19T04:22:54.291Z,0
2018-03-19T04:24:04.354Z,0
2018-03-19T04:25:14.430Z,0
2018-03-19T04:26:24.227Z,0
2018-03-19T04:27:34.284Z,0
2018-03-19T04:28:44.334Z,0
2018-03-19T04:29:54.402Z,0
2018-03-19T04:31:04.220Z,0
2018-03-19T04:32:13.255Z,0
2018-03-19T04:33:23.306Z,0
2018-03-19T04:34:32.878Z,0
2018-03-19T04:35:42.667Z,0
2018-03-19T04:36:52.471Z,0
2018-03-19T04:38:02.390Z,0
2018-03-19T04:39:12.163Z,0
2018-03-19T04:40:22.221Z,0
2018-03-19T04:41:32.010Z,0
2018-03-19T04:42:42.056Z,0
2018-03-19T04:43:51.861Z,0
2018-03-19T04:45:01.916Z,0
2018-03-19T04:46:12.002Z,0
2018-03-19T04:47:22.061Z,0
2018-03-19T04:48:32.126Z,0
2018-03-19T04:49:42.207Z,0
2018-03-19T04:50:51.745Z,0
2018-03-19T04:52:01.267Z,0
2018-03-19T04:53:11.313Z,0
2018-03-19T04:54:21.381Z,0
2018-03-19T04:55:31.425Z,0
2018-03-19T04:56:41.493Z,0
2018-03-19T04:57:51.132Z,0
2018-03-19T04:59:01.197Z,0
2018-03-19T05:00:10.720Z,0
2018-03-19T05:01:20.824Z,0
2018-03-19T05:02:30.876Z,0
2018-03-19T05:03:40.920Z,0
2018-03-19T05:04:50.984Z,0
2018-03-19T05:06:01.056Z,0
2018-03-19T05:07:10.885Z,0
2018-03-19T05:08:20.678Z,5
2018-03-19T05:09:30.728Z,5
2018-03-19T05:10:40.804Z,5
2018-03-19T05:11:50.591Z,5
2018-03-19T05:13:00.442Z,5
2018-03-19T05:14:10.511Z,5
2018-03-19T05:15:20.287Z,5
2018-03-19T05:16:30.079Z,5
2018-03-19T05:17:40.205Z,5
2018-03-19T05:18:49.777Z,10
2018-03-19T05:19:59.821Z,10
2018-03-19T05:21:09.859Z,10
2018-03-19T05:22:19.661Z,10
2018-03-19T05:23:29.513Z,10
2018-03-19T05:24:39.030Z,15
2018-03-19T05:25:49.096Z,15
2018-03-19T05:26:58.895Z,15
2018-03-19T05:28:08.670Z,15
2018-03-19T05:29:18.457Z,15
2018-03-19T05:30:28.500Z,15
2018-03-19T05:31:38.035Z,15
2018-03-19T05:32:48.097Z,15
2018-03-19T05:33:57.613Z,15
2018-03-19T05:35:07.416Z,20
2018-03-19T05:36:17.270Z,20
2018-03-19T05:37:27.328Z,20
2018-03-19T05:38:37.485Z,20
2018-03-19T05:39:47.534Z,20
2018-03-19T05:40:57.336Z,20
2018-03-19T05:42:07.388Z,20
2018-03-19T05:43:17.183Z,25
2018-03-19T05:44:26.979Z,25
2018-03-19T05:45:37.035Z,25
2018-03-19T05:46:47.144Z,30
2018-03-19T05:47:57.216Z,30
2018-03-19T05:49:07.286Z,30
2018-03-19T05:50:16.868Z,35
2018-03-19T05:51:26.926Z,35
2018-03-19T05:52:36.774Z,35
2018-03-19T05:53:46.876Z,35
2018-03-19T05:54:56.680Z,40
2018-03-19T05:56:06.476Z,40
2018-03-19T05:57:16.583Z,45
2018-03-19T05:58:26.488Z,45
2018-03-19T05:59:36.284Z,45
2018-03-19T06:00:46.345Z,50
2018-03-19T06:01:56.143Z,50
2018-03-19T06:03:06.210Z,50
2018-03-19T06:04:16.265Z,55
2018-03-19T06:05:26.338Z,55
2018-03-19T06:06:36.380Z,60
2018-03-19T06:07:46.436Z,60
2018-03-19T06:08:55.972Z,60
2018-03-19T06:10:05.513Z,65
2018-03-19T06:11:15.304Z,65
2018-03-19T06:12:25.372Z,65
2018-03-19T06:13:35.164Z,65
2018-03-19T06:14:44.706Z,65
2018-03-19T06:15:54.775Z,65
2018-03-19T06:17:04.569Z,65
2018-03-19T06:18:14.615Z,65
2018-03-19T06:19:24.677Z,65
2018-03-19T06:20:34.734Z,65
2018-03-19T06:21:44.275Z,65
2018-03-19T06:22:54.329Z,65
2018-03-19T06:24:04.123Z,70
2018-03-19T06:25:14.197Z,70
2018-03-19T06:26:24.278Z,70
2018-03-19T06:27:34.184Z,75
2018-03-19T06:28:43.970Z,75
2018-03-19T06:29:53.760Z,80
2018-03-19T06:31:03.559Z,80
2018-03-19T06:32:13.607Z,80
2018-03-19T06:33:23.715Z,80
2018-03-19T06:34:33.501Z,80
2018-03-19T06:35:43.303Z,80
2018-03-19T06:36:53.363Z,80
2018-03-19T06:38:03.158Z,80
2018-03-19T06:39:13.275Z,75
2018-03-19T06:40:23.126Z,70
2018-03-19T06:41:33.205Z,70
2018-03-19T06:42:43.278Z,70
2018-03-19T06:43:53.339Z,70
2018-03-19T06:45:03.413Z,75
2018-03-19T06:46:13.508Z,75
2018-03-19T06:47:23.294Z,80
2018-03-19T06:48:33.347Z,80
2018-03-19T06:49:43.129Z,85
2018-03-19T06:50:53.180Z,85
2018-03-19T06:52:03.233Z,85
2018-03-19T06:53:13.308Z,85
2018-03-19T06:54:23.385Z,85
2018-03-19T06:55:33.554Z,85
2018-03-19T06:56:43.353Z,85
2018-03-19T06:57:53.143Z,90
2018-03-19T06:59:02.935Z,90
2018-03-19T07:00:12.719Z,95
2018-03-19T07:01:22.782Z,95
2018-03-19T07:02:32.304Z,100
2018-03-19T07:03:42.424Z,105
2018-03-19T07:04:52.471Z,105
2018-03-19T07:06:02.536Z,105
2018-03-19T07:07:12.320Z,110
2018-03-19T07:08:22.176Z,110
2018-03-19T07:09:32.278Z,115
2018-03-19T07:10:42.074Z,115
2018-03-19T07:11:51.352Z,115
2018-03-19T07:13:01.149Z,120
2018-03-19T07:14:11.215Z,120
2018-03-19T07:15:20.750Z,125
2018-03-19T07:16:30.296Z,125
2018-03-19T07:17:40.100Z,125
2018-03-19T07:18:50.172Z,130
2018-03-19T07:20:00.225Z,130
2018-03-19T07:21:10.270Z,125
2018-03-19T07:22:20.332Z,125
2018-03-19T07:23:30.411Z,125
2018-03-19T07:24:40.469Z,130
2018-03-19T07:25:50.688Z,135
2018-03-19T07:27:00.485Z,145
2018-03-19T07:28:10.545Z,150
2018-03-19T07:29:20.596Z,150
2018-03-19T07:30:30.649Z,150
2018-03-19T07:31:40.743Z,145
2018-03-19T07:32:50.527Z,140
2018-03-19T07:34:00.727Z,140
2018-03-19T07:35:10.815Z,135
2018-03-19T07:36:20.909Z,135
2018-03-19T07:37:31.251Z,135
2018-03-19T07:38:41.502Z,140
2018-03-19T07:39:51.740Z,140
2018-03-19T07:41:02.159Z,145
2018-03-19T07:42:12.423Z,150
2018-03-19T07:43:22.368Z,150
2018-03-19T07:44:32.539Z,150
2018-03-19T07:45:42.085Z,150
2018-03-19T07:46:52.137Z,155
2018-03-19T07:48:02.197Z,155
2018-03-19T07:49:12.045Z,155
2018-03-19T07:50:21.933Z,150
2018-03-19T07:51:31.753Z,150
2018-03-19T07:52:41.575Z,145
2018-03-19T07:53:51.375Z,155
2018-03-19T07:55:01.442Z,150
2018-03-19T07:56:11.028Z,155
2018-03-19T07:57:21.230Z,160
2018-03-19T07:58:31.036Z,170
2018-03-19T07:59:40.840Z,175
2018-03-19T08:00:50.635Z,180
2018-03-19T08:02:00.186Z,175
2018-03-19T08:03:10.237Z,175
2018-03-19T08:04:20.056Z,165
2018-03-19T08:05:29.595Z,160
2018-03-19T08:06:39.680Z,150
2018-03-19T08:07:49.472Z,145
2018-03-19T08:08:59.529Z,145
2018-03-19T08:10:09.583Z,145
2018-03-19T08:11:19.375Z,145
2018-03-19T08:12:29.052Z,150
2018-03-19T08:13:39.159Z,155
2018-03-19T08:14:49.202Z,160
2018-03-19T08:15:59.256Z,165
2018-03-19T08:17:08.800Z,160
2018-03-19T08:18:18.936Z,160
2018-03-19T08:19:29.052Z,160
2018-03-19T08:20:38.590Z,160
2018-03-19T08:21:48.649Z,165
2018-03-19T08:22:58.921Z,165
2018-03-19T08:24:08.707Z,165
2018-03-19T08:25:18.509Z,165
2018-03-19T08:26:28.302Z,165
2018-03-19T08:27:38.137Z,165
2018-03-19T08:28:47.932Z,165
2018-03-19T08:29:57.988Z,165
2018-03-19T08:31:07.808Z,170
2018-03-19T08:32:17.592Z,175
2018-03-19T08:33:27.436Z,185
2018-03-19T08:34:37.231Z,185
2018-03-19T08:35:47.327Z,185
2018-03-19T08:36:57.375Z,190
2018-03-19T08:38:06.908Z,190
2018-03-19T08:39:17.004Z,190
2018-03-19T08:40:27.193Z,190
2018-03-19T08:41:36.503Z,185
2018-03-19T08:42:46.294Z,185
2018-03-19T08:43:56.372Z,180
2018-03-19T08:45:06.462Z,175
2018-03-19T08:46:16.244Z,175
2018-03-19T08:47:25.787Z,175
2018-03-19T08:48:35.664Z,185
2018-03-19T08:49:45.466Z,185
2018-03-19T08:50:55.577Z,190
2018-03-19T08:52:05.386Z,195
2018-03-19T08:53:15.469Z,200
2018-03-19T08:54:25.266Z,205
2018-03-19T08:55:35.068Z,205
2018-03-19T08:56:45.217Z,200
2018-03-19T08:57:54.758Z,195
2018-03-19T08:59:04.860Z,185
2018-03-19T09:00:14.926Z,180
2018-03-19T09:01:24.732Z,175
2018-03-19T09:02:34.803Z,170
2018-03-19T09:03:44.614Z,160
2018-03-19T09:04:54.429Z,160
2018-03-19T09:06:04.496Z,160
2018-03-19T09:07:14.467Z,160
2018-03-19T09:08:24.316Z,165
2018-03-19T09:09:34.381Z,170
2018-03-19T09:10:44.540Z,175
2018-03-19T09:11:54.654Z,180
2018-03-19T09:13:04.200Z,180
2018-03-19T09:14:14.054Z,180
2018-03-19T09:15:23.585Z,185
2018-03-19T09:16:33.639Z,190
2018-03-19T09:17:43.188Z,190
2018-03-19T09:18:53.333Z,190
2018-03-19T09:20:03.222Z,190
2018-03-19T09:21:13.021Z,190
2018-03-19T09:22:23.148Z,185
2018-03-19T09:23:33.221Z,185
2018-03-19T09:24:43.019Z,190
2018-03-19T09:25:52.864Z,200
2018-03-19T09:27:02.685Z,205
2018-03-19T09:28:12.749Z,210
2018-03-19T09:29:22.549Z,215
2018-03-19T09:30:32.079Z,220
2018-03-19T09:31:41.385Z,225
2018-03-19T09:32:51.468Z,230
2018-03-19T09:34:01.532Z,235
2018-03-19T09:35:11.567Z,235
2018-03-19T09:36:21.431Z,235
2018-03-19T09:37:30.959Z,235
2018-03-19T09:38:40.757Z,235
2018-03-19T09:39:50.839Z,240
2018-03-19T09:41:00.642Z,240
2018-03-19T09:42:10.497Z,240
2018-03-19T09:43:20.028Z,245
2018-03-19T09:44:30.081Z,250
2018-03-19T09:45:39.887Z,255
2018-03-19T09:46:49.964Z,255
2018-03-19T09:47:59.762Z,255
2018-03-19T09:49:09.565Z,255
2018-03-19T09:50:19.363Z,260
2018-03-19T09:51:29.423Z,260
2018-03-19T09:52:39.493Z,265
2018-03-19T09:53:49.323Z,270
2018-03-19T09:54:59.114Z,265
2018-03-19T09:56:09.224Z,265
2018-03-19T09:57:19.284Z,265
2018-03-19T09:58:29.111Z,270
2018-03-19T09:59:38.934Z,270
2018-03-19T10:00:48.471Z,270
2018-03-19T10:01:58.314Z,275
2018-03-19T10:03:07.855Z,275
2018-03-19T10:04:17.656Z,270
2018-03-19T10:05:27.454Z,260
2018-03-19T10:06:37.236Z,250
2018-03-19T10:07:47.299Z,240
2018-03-19T10:08:57.407Z,235
2018-03-19T10:10:07.491Z,230
2018-03-19T10:11:17.044Z,230
2018-03-19T10:12:26.880Z,235
2018-03-19T10:13:37.009Z,240
2018-03-19T10:14:47.093Z,245
2018-03-19T10:15:57.158Z,245
2018-03-19T10:17:06.972Z,240
2018-03-19T10:18:16.766Z,235
2018-03-19T10:19:26.368Z,230
2018-03-19T10:20:36.183Z,225
2018-03-19T10:21:46.114Z,225
2018-03-19T10:22:55.391Z,225
2018-03-19T10:24:04.926Z,230
2018-03-19T10:25:14.716Z,240
2018-03-19T10:26:24.781Z,240
2018-03-19T10:27:34.934Z,240
2018-03-19T10:28:45.014Z,235
2018-03-19T10:29:54.819Z,230
2018-03-19T10:31:04.929Z,230
2018-03-19T10:32:14.737Z,235
2018-03-19T10:33:24.835Z,245
2018-03-19T10:34:34.651Z,245
2018-03-19T10:35:44.714Z,245
2018-03-19T10:36:54.526Z,240
2018-03-19T10:38:04.312Z,240
2018-03-19T10:39:14.388Z,240
2018-03-19T10:40:24.200Z,245
2018-03-19T10:41:34.269Z,250
2018-03-19T10:42:44.394Z,255
2018-03-19T10:43:54.450Z,265
2018-03-19T10:45:04.499Z,255
2018-03-19T10:46:14.053Z,250
2018-03-19T10:47:24.118Z,255
2018-03-19T10:48:34.226Z,275
2018-03-19T10:49:44.293Z,270
2018-03-19T10:50:54.361Z,270
2018-03-19T10:52:04.153Z,270
2018-03-19T10:53:14.226Z,275
2018-03-19T10:54:24.340Z,285
2018-03-19T10:55:34.408Z,275
2018-03-19T10:56:44.457Z,260
2018-03-19T10:57:54.548Z,250
2018-03-19T10:59:04.355Z,245
2018-03-19T11:00:13.890Z,235
2018-03-19T11:01:24.116Z,230
2018-03-19T11:02:34.210Z,225
2018-03-19T11:03:44.000Z,220
2018-03-19T11:04:53.562Z,215
2018-03-19T11:06:03.403Z,210
2018-03-19T11:07:13.218Z,200
2018-03-19T11:08:23.004Z,190
2018-03-19T11:09:33.153Z,190
2018-03-19T11:10:43.228Z,185
2018-03-19T11:11:53.562Z,185
2018-03-19T11:13:03.291Z,190
2018-03-19T11:14:13.394Z,190
2018-03-19T11:15:23.449Z,190
2018-03-19T11:16:33.542Z,190
2018-03-19T11:17:43.647Z,190
2018-03-19T11:18:53.452Z,190
2018-03-19T11:20:03.622Z,195
2018-03-19T11:21:13.737Z,190
2018-03-19T11:22:23.805Z,190
2018-03-19T11:23:33.877Z,195
2018-03-19T11:24:43.680Z,195
2018-03-19T11:25:53.233Z,200
2018-03-19T11:27:03.311Z,200
2018-03-19T11:28:13.113Z,210
2018-03-19T11:29:23.043Z,210
2018-03-19T11:30:32.581Z,215
2018-03-19T11:31:42.647Z,220
2018-03-19T11:32:52.695Z,225
2018-03-19T11:34:02.756Z,225
2018-03-19T11:35:12.601Z,230
2018-03-19T11:36:22.670Z,225
2018-03-19T11:37:32.464Z,220
2018-03-19T11:38:42.271Z,220
2018-03-19T11:39:52.059Z,215
2018-03-19T11:41:01.882Z,205
2018-03-19T11:42:11.995Z,195
2018-03-19T11:43:21.535Z,190
2018-03-19T11:44:31.582Z,195
2018-03-19T11:45:41.377Z,200
2018-03-19T11:46:51.183Z,205
2018-03-19T11:48:00.995Z,205
2018-03-19T11:49:11.065Z,200
2018-03-19T11:50:21.130Z,195
2018-03-19T11:51:30.929Z,185
2018-03-19T11:52:40.985Z,190
2018-03-19T11:53:51.057Z,190
2018-03-19T11:55:00.883Z,190
2018-03-19T11:56:10.672Z,190
2018-03-19T11:57:20.489Z,185
2018-03-19T11:58:30.559Z,185
2018-03-19T11:59:40.087Z,185
2018-03-19T12:00:49.888Z,190
2018-03-19T12:01:59.676Z,190
2018-03-19T12:03:09.492Z,190
2018-03-19T12:04:19.554Z,195
2018-03-19T12:05:29.093Z,200
2018-03-19T12:06:38.909Z,200
2018-03-19T12:07:48.434Z,205
2018-03-19T12:08:58.490Z,205
2018-03-19T12:10:08.013Z,205
2018-03-19T12:11:17.601Z,200
2018-03-19T12:12:27.797Z,205
2018-03-19T12:13:37.604Z,205
2018-03-19T12:14:47.159Z,210
2018-03-19T12:15:57.265Z,205
2018-03-19T12:17:06.818Z,210
2018-03-19T12:18:16.612Z,205
2018-03-19T12:19:26.441Z,195
2018-03-19T12:20:36.511Z,190
2018-03-19T12:21:46.375Z,190
2018-03-19T12:22:56.456Z,185
2018-03-19T12:24:06.233Z,185
2018-03-19T12:25:16.295Z,185
2018-03-19T12:26:26.106Z,185
2018-03-19T12:27:36.208Z,180
2018-03-19T12:28:46.008Z,175
2018-03-19T12:29:55.537Z,180
2018-03-19T12:31:05.602Z,185
2018-03-19T12:32:15.398Z,195
2018-03-19T12:33:25.527Z,200
2018-03-19T12:34:35.349Z,200
2018-03-19T12:35:45.143Z,200
2018-03-19T12:36:55.216Z,195
2018-03-19T12:38:05.009Z,190
2018-03-19T12:39:14.561Z,180
2018-03-19T12:40:24.077Z,170
2018-03-19T12:41:33.859Z,165
2018-03-19T12:42:43.926Z,160
2018-03-19T12:43:53.972Z,150
2018-03-19T12:45:03.508Z,155
2018-03-19T12:46:13.297Z,155
2018-03-19T12:47:23.357Z,150
2018-03-19T12:48:33.409Z,150
2018-03-19T12:49:43.216Z,145
2018-03-19T12:50:53.312Z,140
2018-03-19T12:52:03.122Z,140
2018-03-19T12:53:12.658Z,135
2018-03-19T12:54:22.476Z,135
2018-03-19T12:55:32.045Z,140
2018-03-19T12:56:41.924Z,145
2018-03-19T12:57:51.199Z,150
2018-03-19T12:59:01.252Z,150
2018-03-19T13:00:11.365Z,150
2018-03-19T13:01:21.167Z,150
2018-03-19T13:02:30.756Z,150
2018-03-19T13:03:40.559Z,150
2018-03-19T13:04:50.624Z,155
2018-03-19T13:06:00.697Z,155
2018-03-19T13:07:10.541Z,150
2018-03-19T13:08:20.707Z,150
2018-03-19T13:09:30.765Z,145
2018-03-19T13:10:40.567Z,145
2018-03-19T13:11:50.626Z,140
2018-03-19T13:13:00.548Z,140
2018-03-19T13:14:10.409Z,140
2018-03-19T13:15:20.467Z,135
2018-03-19T13:16:30.014Z,130
2018-03-19T13:17:40.103Z,125
2018-03-19T13:18:49.891Z,120
2018-03-19T13:19:59.701Z,120
2018-03-19T13:21:09.768Z,120
2018-03-19T13:22:19.321Z,115
2018-03-19T13:23:29.384Z,115
2018-03-19T13:24:39.698Z,120
2018-03-19T13:25:49.550Z,115
2018-03-19T13:26:59.607Z,115
2018-03-19T13:28:09.684Z,120
2018-03-19T13:29:18.954Z,120
2018-03-19T13:30:28.741Z,120
2018-03-19T13:31:38.334Z,125
2018-03-19T13:32:48.157Z,125
2018-03-19T13:33:58.207Z,125
2018-03-19T13:35:07.746Z,125
2018-03-19T13:36:17.842Z,130
2018-03-19T13:37:27.369Z,135
2018-03-19T13:38:37.429Z,135
2018-03-19T13:39:47.509Z,135
2018-03-19T13:40:57.586Z,130
2018-03-19T13:42:07.659Z,130
2018-03-19T13:43:17.464Z,130
2018-03-19T13:44:27.546Z,130
2018-03-19T13:45:37.625Z,125
2018-03-19T13:46:47.152Z,120
2018-03-19T13:47:57.218Z,115
2018-03-19T13:49:07.306Z,115
2018-03-19T13:50:17.113Z,115
2018-03-19T13:51:27.194Z,120
2018-03-19T13:52:37.307Z,130
2018-03-19T13:53:47.242Z,135
2018-03-19T13:54:57.379Z,140
2018-03-19T13:56:07.450Z,135
2018-03-19T13:57:16.988Z,135
2018-03-19T13:58:26.785Z,130
2018-03-19T13:59:36.582Z,130
2018-03-19T14:00:46.438Z,125
2018-03-19T14:01:56.499Z,125
2018-03-19T14:03:06.046Z,120
2018-03-19T14:04:16.126Z,115
2018-03-19T14:05:26.190Z,115
2018-03-19T14:06:36.286Z,115
2018-03-19T14:07:46.350Z,115
2018-03-19T14:08:55.896Z,115
2018-03-19T14:10:05.974Z,115
2018-03-19T14:11:16.061Z,115
2018-03-19T14:12:25.860Z,110
2018-03-19T14:13:34.947Z,110
2018-03-19T14:14:44.495Z,100
2018-03-19T14:15:54.563Z,95
2018-03-19T14:17:04.686Z,90
2018-03-19T14:18:14.535Z,85
2018-03-19T14:19:24.599Z,85
2018-03-19T14:20:34.669Z,80
2018-03-19T14:21:44.585Z,80
2018-03-19T14:22:54.656Z,80
2018-03-19T14:24:04.458Z,80
2018-03-19T14:25:14.516Z,80
2018-03-19T14:26:24.329Z,80
2018-03-19T14:27:34.659Z,80
2018-03-19T14:28:44.794Z,75
2018-03-19T14:29:54.877Z,75
2018-03-19T14:31:04.720Z,75
2018-03-19T14:32:14.266Z,75
2018-03-19T14:33:24.326Z,75
2018-03-19T14:34:34.390Z,70
2018-03-19T14:35:43.922Z,70
2018-03-19T14:36:53.721Z,75
2018-03-19T14:38:03.790Z,75
2018-03-19T14:39:13.859Z,80
2018-03-19T14:40:23.668Z,75
2018-03-19T14:41:33.476Z,75
2018-03-19T14:42:43.302Z,75
2018-03-19T14:43:53.368Z,75
2018-03-19T14:45:03.428Z,70
2018-03-19T14:46:13.219Z,70
2018-03-19T14:47:23.073Z,65
2018-03-19T14:48:33.155Z,60
2018-03-19T14:49:43.320Z,60
2018-03-19T14:50:52.961Z,60
2018-03-19T14:52:02.490Z,55
2018-03-19T14:53:12.553Z,50
2018-03-19T14:54:21.817Z,50
2018-03-19T14:55:31.932Z,50
2018-03-19T14:56:41.234Z,45
2018-03-19T14:57:51.326Z,50
2018-03-19T14:59:00.873Z,50
2018-03-19T15:00:10.978Z,50
2018-03-19T15:01:20.781Z,50
2018-03-19T15:02:30.578Z,45
2018-03-19T15:03:40.375Z,45
2018-03-19T15:04:49.649Z,45
2018-03-19T15:05:59.775Z,40
2018-03-19T15:07:09.578Z,40
2018-03-19T15:08:19.643Z,40
2018-03-19T15:09:29.190Z,40
2018-03-19T15:10:39.284Z,40
2018-03-19T15:11:49.344Z,40
2018-03-19T15:12:58.620Z,40
2018-03-19T15:14:08.690Z,40
2018-03-19T15:15:18.524Z,40
2018-03-19T15:16:28.385Z,40
2018-03-19T15:17:38.168Z,40
2018-03-19T15:18:47.967Z,40
2018-03-19T15:19:58.068Z,40
2018-03-19T15:21:08.151Z,40
2018-03-19T15:22:18.201Z,40
2018-03-19T15:23:28.095Z,40
2018-03-19T15:24:38.160Z,40
2018-03-19T15:25:47.978Z,40
2018-03-19T15:26:57.774Z,40
2018-03-19T15:28:07.822Z,40
2018-03-19T15:29:17.354Z,40
2018-03-19T15:30:28.485Z,35
2018-03-19T15:31:38.337Z,35
2018-03-19T15:32:49.710Z,35
2018-03-19T15:34:00.049Z,30
2018-03-19T15:35:10.109Z,30
2018-03-19T15:36:19.977Z,30
2018-03-19T15:37:29.522Z,25
2018-03-19T15:38:39.602Z,25
2018-03-19T15:39:49.695Z,25
2018-03-19T15:40:59.254Z,25
2018-03-19T15:42:09.074Z,25
2018-03-19T15:43:18.630Z,20
2018-03-19T15:44:28.704Z,20
2018-03-19T15:45:38.515Z,20
2018-03-19T15:46:48.605Z,20
2018-03-19T15:47:58.717Z,20
2018-03-19T15:49:08.607Z,20
2018-03-19T15:50:18.183Z,20
2018-03-19T15:51:28.270Z,20
2018-03-19T15:52:38.075Z,20
2018-03-19T15:53:47.952Z,20
2018-03-19T15:54:57.769Z,20
2018-03-19T15:56:07.581Z,20
2018-03-19T15:57:17.395Z,20
2018-03-19T15:58:27.212Z,20
2018-03-19T15:59:37.392Z,20
2018-03-19T16:00:47.212Z,20
2018-03-19T16:01:57.310Z,20
2018-03-19T16:03:07.388Z,20
2018-03-19T16:04:17.461Z,20
2018-03-19T16:05:27.571Z,20
2018-03-19T16:06:37.651Z,20
2018-03-19T16:07:47.716Z,20
2018-03-19T16:08:57.763Z,15
2018-03-19T16:10:07.554Z,15
2018-03-19T16:11:17.394Z,15
2018-03-19T16:12:27.604Z,15
2018-03-19T16:13:37.403Z,15
2018-03-19T16:14:47.533Z,15
2018-03-19T16:15:56.829Z,15
2018-03-19T16:17:06.687Z,10
2018-03-19T16:18:16.269Z,10
2018-03-19T16:19:26.347Z,10
2018-03-19T16:20:36.190Z,10
2018-03-19T16:21:46.255Z,10
2018-03-19T16:22:56.578Z,10
2018-03-19T16:24:05.872Z,10
2018-03-19T16:25:16.019Z,10
2018-03-19T16:26:26.092Z,10
2018-03-19T16:27:36.001Z,10
2018-03-19T16:28:46.090Z,10
2018-03-19T16:29:55.633Z,10
2018-03-19T16:31:05.717Z,10
2018-03-19T16:32:15.793Z,10
2018-03-19T16:33:25.607Z,10
2018-03-19T16:34:35.693Z,10
2018-03-19T16:35:45.516Z,10
2018-03-19T16:36:55.587Z,5
2018-03-19T16:38:05.428Z,5
2018-03-19T16:39:14.970Z,5
2018-03-19T16:40:24.799Z,5
2018-03-19T16:41:34.893Z,5
2018-03-19T16:42:44.993Z,5
2018-03-19T16:43:54.800Z,5
2018-03-19T16:45:04.617Z,5
2018-03-19T16:46:14.231Z,5
2018-03-19T16:47:24.324Z,5
2018-03-19T16:48:34.408Z,5
2018-03-19T16:49:43.978Z,5
2018-03-19T16:50:53.774Z,0
2018-03-19T16:52:03.730Z,0
2018-03-19T16:53:13.284Z,0
2018-03-19T16:54:23.131Z,0
2018-03-19T16:55:32.931Z,0
2018-03-19T16:56:42.754Z,0
2018-03-19T16:57:51.820Z,0
2018-03-19T16:59:01.914Z,0
2018-03-19T17:00:11.999Z,0
2018-03-19T17:01:21.822Z,0
2018-03-19T17:02:31.901Z,0